Fort George, Belize

4:44 PM CST on December 06, 2016 (GMT -0600)
Philip S W Goldson International | | Change Station

Elev 16 ft 17.54 °N, 88.31 °W | Updated 44 minutes ago

Partly Cloudy
Partly Cloudy
86 °F
Feels Like 99 °F
N
7
Wind Variable Wind from ENE

Today
High -- | Low -- °F
--% Chance of Precip.
Yesterday
High -- | Low -- °F
Precip. -- in
Pressure 29.86 in
Visibility 6.2 miles
Clouds Few 2600 ft
Heat Index 99 °F
Dew Point 79 °F
Humidity 79%
Rainfall 0.00 in
Snow Depth Not available.
6:10 AM 5:17 PM
Waxing Crescent, 46% visible
METAR MZBZ 062200Z 07006KT 9999 FEW026 30/26 A2986 Q1011 NOSIG
Pressure 29.86 in
Visibility 6.2 miles
Clouds Few 2600 ft
Heat Index 99 °F
Dew Point 79 °F
Humidity 79%
Rainfall 0.00 in
Snow Depth Not available.
6:10 AM 5:17 PM
Waxing Crescent, 46% visible
METAR MZBZ 062200Z 07006KT 9999 FEW026 30/26 A2986 Q1011 NOSIG

10-Day Weather Forecast

No radar image for this location.
×

Almanac

Astronomy

Dec. 06, 2016 Rise Set
Actual Time
Civil Twilight
Nautical Twilight
Astronomical Twilight
Moon
Length of Visible Light
Length of Day
Tomorrow will be .
, % of the Moon is Illuminated

Today's Extremes

Country Highs Country Lows

Community

WunderPhotos

Upload Photos

1,956,042 photos uploaded!

WunderBlog® & News

Nearby

Air Quality

  Air Quality AQ Index Pollutant
Not available.

Snow Depth

Station Depth Elevation

Earthquake Activity

City Distance Mag. Time & Date
Minimum magnitude displayed is 2.5.

Coastal Water Temperatures

Place Temperature

Stations

Nearby Weather Stations

Station Location Temp. Windchill Dew Point Humidity Wind Precip. Elev Updated Type